Time;durP1;ratioP1;P1;durP2;ratioP2;P2;SDS_P1;SDS_P2;PMS_P1;PMS_P2;Temp;Humidity;BMP_temperature;BMP_pressure;BME280_temperature;BME280_humidity;BME280_pressure;Samples;Min_cycle;Max_cycle;Signal;HPM_P1;HPM_P2
2021/12/09 00:03:13;;;;;;;52.23;22.00;;;1.20;99.90;;;-1.00;96.53;99414.06;10550768;27;98309;-83
2021/12/09 00:08:16;;;;;;;46.70;20.53;;;1.20;99.90;;;-0.99;96.38;99371.38;10566788;27;96516;-83
2021/12/09 00:13:19;;;;;;;46.30;20.33;;;1.20;99.90;;;-1.03;96.66;99362.94;10529185;27;96600;-83
2021/12/09 00:18:23;;;;;;;56.10;22.67;;;1.20;99.90;;;-1.03;96.80;99354.28;10558152;27;96513;-83
2021/12/09 00:23:26;;;;;;;57.60;22.63;;;1.20;99.90;;;-1.01;96.66;99365.47;10539874;27;96651;-84
2021/12/09 00:28:29;;;;;;;48.73;20.50;;;1.10;99.90;;;-1.01;96.76;99371.50;10575601;27;96512;-83
2021/12/09 00:33:36;;;;;;;48.03;20.33;;;1.20;99.90;;;-1.00;97.00;99374.94;10539147;27;96575;-83
2021/12/09 00:38:41;;;;;;;52.17;22.67;;;1.20;99.90;;;-0.98;97.06;99378.25;10555147;27;96565;-83
2021/12/09 00:43:44;;;;;;;47.40;21.67;;;1.20;99.90;;;-0.98;97.31;99373.88;10532772;27;96701;-83
2021/12/09 00:48:47;;;;;;;52.43;22.03;;;1.20;99.90;;;-0.97;96.79;99362.47;10540187;27;96590;-83
2021/12/09 00:53:50;;;;;;;48.87;21.10;;;1.20;99.90;;;-0.96;96.87;99351.13;10555042;27;97388;-83
2021/12/09 00:58:55;;;;;;;52.23;20.57;;;1.30;99.90;;;-0.94;96.90;99354.44;10519818;27;96480;-83
2021/12/09 01:03:59;;;;;;;48.00;20.93;;;1.30;99.90;;;-0.93;97.26;99344.84;10564985;27;96779;-83
2021/12/09 01:09:04;;;;;;;51.87;21.67;;;1.30;99.90;;;-0.94;96.85;99336.19;10520580;27;97844;-84
2021/12/09 01:14:07;;;;;;;55.20;22.60;;;1.30;99.90;;;-0.95;97.15;99321.50;10554693;27;96515;-84
2021/12/09 01:19:10;;;;;;;45.20;19.77;;;1.30;99.90;;;-0.93;96.98;99313.53;10555074;27;96632;-83
2021/12/09 01:24:13;;;;;;;54.97;21.30;;;1.30;99.90;;;-0.94;97.08;99306.66;10552778;27;96422;-83
2021/12/09 01:29:20;;;;;;;49.20;20.63;;;1.30;99.90;;;-0.94;97.33;99322.31;10559452;27;97427;-84
2021/12/09 01:34:23;;;;;;;51.17;20.80;;;1.30;99.90;;;-0.92;97.23;99336.06;10557134;27;96432;-83
2021/12/09 01:39:28;;;;;;;50.93;19.77;;;1.30;99.90;;;-0.92;97.55;99333.44;10538436;27;96503;-83
2021/12/09 01:44:31;;;;;;;49.33;20.37;;;1.30;99.90;;;-0.91;97.23;99320.28;10531057;27;96492;-83
2021/12/09 01:49:34;;;;;;;49.03;21.93;;;1.30;99.90;;;-0.90;97.54;99308.06;10549572;27;96458;-83
2021/12/09 01:54:37;;;;;;;52.50;21.17;;;1.30;99.90;;;-0.90;97.32;99308.06;10532323;27;96756;-83
2021/12/09 01:59:40;;;;;;;52.80;22.10;;;1.30;99.90;;;-0.90;97.37;99290.69;10552528;27;96992;-84
2021/12/09 02:04:44;;;;;;;46.37;20.63;;;1.30;99.90;;;-0.92;97.16;99287.34;10561001;27;97990;-84
2021/12/09 02:09:47;;;;;;;56.80;21.77;;;1.30;99.90;;;-0.92;97.33;99269.09;10541537;27;96506;-83
2021/12/09 02:14:52;;;;;;;55.50;21.93;;;1.30;99.90;;;-0.92;97.36;99265.66;10578940;27;96451;-83
2021/12/09 02:20:01;;;;;;;53.43;21.37;;;1.30;99.90;;;-0.93;97.41;99275.25;10535699;27;96498;-83
2021/12/09 02:25:05;;;;;;;51.97;21.80;;;1.30;99.90;;;-0.92;97.10;99268.25;10541037;27;96481;-84
2021/12/09 02:30:10;;;;;;;50.97;20.83;;;1.30;99.90;;;-0.93;97.14;99261.38;10553853;27;96488;-83
2021/12/09 02:35:13;;;;;;;46.80;19.03;;;1.30;99.90;;;-0.94;97.15;99281.41;10542241;27;96364;-84
2021/12/09 02:40:17;;;;;;;45.50;19.67;;;1.30;99.90;;;-0.92;97.12;99268.25;10557419;27;96548;-84
2021/12/09 02:45:21;;;;;;;48.37;22.63;;;1.30;99.90;;;-0.93;97.13;99272.63;10537971;27;96525;-84
2021/12/09 02:50:24;;;;;;;49.53;19.90;;;1.30;99.90;;;-0.91;96.81;99246.44;10575371;27;96469;-84
2021/12/09 02:55:27;;;;;;;43.93;19.33;;;1.30;99.90;;;-0.91;97.19;99262.91;10569804;27;96471;-83
2021/12/09 03:00:31;;;;;;;43.77;18.70;;;1.30;99.90;;;-0.91;96.96;99272.50;10525164;27;96520;-83
2021/12/09 03:05:35;;;;;;;52.07;20.87;;;1.30;99.90;;;-0.91;97.08;99255.09;10578001;27;96599;-84
2021/12/09 03:10:38;;;;;;;42.23;18.63;;;1.30;99.90;;;-0.90;97.13;99232.44;10596728;27;96555;-83
2021/12/09 03:15:41;;;;;;;43.70;19.23;;;1.30;99.90;;;-0.89;96.91;99253.22;10572610;27;96892;-83
2021/12/09 03:20:44;;;;;;;48.60;19.03;;;1.30;99.90;;;-0.87;97.14;99213.97;10531838;27;96637;-84
2021/12/09 03:25:47;;;;;;;53.00;21.30;;;1.30;99.90;;;-0.86;97.22;99221.66;10535603;27;96566;-82
2021/12/09 03:30:50;;;;;;;52.90;20.57;;;1.30;99.90;;;-0.85;97.23;99241.56;10541247;27;96471;-83
2021/12/09 03:36:03;;;;;;;50.93;20.70;;;1.30;99.90;;;-0.83;97.04;99238.88;10555035;27;96791;-83
2021/12/09 03:41:06;;;;;;;46.33;20.13;;;1.40;99.90;;;-0.81;97.74;99239.56;10563408;27;97117;-83
2021/12/09 03:46:09;;;;;;;50.90;20.43;;;1.40;99.90;;;-0.78;97.52;99231.53;10547476;27;96563;-84
2021/12/09 03:51:12;;;;;;;53.10;21.37;;;1.40;99.90;;;-0.78;97.44;99210.66;10521331;27;96458;-83
2021/12/09 03:56:15;;;;;;;55.37;20.53;;;1.40;99.90;;;-0.75;97.35;99222.59;10568102;27;97114;-83
2021/12/09 04:01:18;;;;;;;55.10;20.50;;;1.40;99.90;;;-0.73;97.23;99238.97;10538244;27;96684;-83
2021/12/09 04:06:22;;;;;;;40.43;17.97;;;1.50;99.90;;;-0.70;97.64;99236.13;10517288;27;96478;-84
2021/12/09 04:11:25;;;;;;;40.90;18.20;;;1.50;99.90;;;-0.68;97.26;99236.81;10523944;27;96615;-83
2021/12/09 04:16:35;;;;;;;38.17;18.40;;;1.50;99.90;;;-0.67;97.28;99225.44;10531500;27;96617;-83
2021/12/09 04:21:39;;;;;;;40.07;17.93;;;1.50;99.90;;;-0.65;97.23;99228.78;10554719;27;96473;-83
2021/12/09 04:26:49;;;;;;;40.23;17.67;;;1.50;99.90;;;-0.64;97.34;99204.34;10559016;27;96405;-83
2021/12/09 04:31:52;;;;;;;40.47;17.37;;;1.60;99.90;;;-0.64;97.32;99209.56;10551858;27;96559;-83
2021/12/09 04:36:56;;;;;;;37.70;16.87;;;1.60;99.90;;;-0.63;97.09;99206.00;10550623;27;96465;-83
2021/12/09 04:41:59;;;;;;;40.60;16.47;;;1.60;99.90;;;-0.61;96.81;99231.00;10548205;27;96551;-83
2021/12/09 04:47:03;;;;;;;39.03;15.77;;;1.60;99.90;;;-0.61;96.94;99238.00;10532862;27;96620;-84
2021/12/09 04:52:07;;;;;;;37.83;15.83;;;1.60;99.90;;;-0.59;96.73;99238.72;10531218;27;96595;-83
2021/12/09 04:57:14;;;;;;;35.43;15.83;;;1.60;99.90;;;-0.57;96.94;99250.69;10554079;27;96646;-84
2021/12/09 05:02:35;;;;;;;31.40;13.80;;;1.70;99.90;;;-0.55;96.68;99237.53;10538577;27;96561;-82
2021/12/09 05:07:40;;;;;;;30.17;14.00;;;1.70;99.90;;;-0.53;96.56;99235.63;10556004;27;96543;-81
2021/12/09 05:12:42;;;;;;;30.77;13.90;;;1.70;99.90;;;-0.50;96.39;99240.59;10538127;27;96545;-81
2021/12/09 05:17:45;;;;;;;31.97;14.67;;;1.70;99.90;;;-0.50;96.54;99227.56;10593770;27;96490;-81
2021/12/09 05:22:49;;;;;;;30.33;14.00;;;1.70;99.90;;;-0.48;96.05;99203.94;10574805;27;96548;-82
2021/12/09 05:27:53;;;;;;;34.27;14.97;;;1.70;99.90;;;-0.49;95.84;99216.16;10550584;27;96422;-81
2021/12/09 05:32:56;;;;;;;30.77;14.00;;;1.70;99.90;;;-0.48;96.17;99236.09;10558385;27;96732;-81
2021/12/09 05:37:59;;;;;;;38.37;14.93;;;1.70;99.90;;;-0.48;96.14;99210.00;10564809;27;96564;-81
2021/12/09 05:43:02;;;;;;;35.17;14.40;;;1.70;99.90;;;-0.47;96.00;99200.41;10531809;27;96511;-81
2021/12/09 05:48:07;;;;;;;36.73;18.37;;;1.70;99.90;;;-0.47;96.05;99221.28;10540884;27;96645;-81
2021/12/09 05:53:11;;;;;;;36.20;16.80;;;1.70;99.90;;;-0.45;96.15;99208.94;10540829;27;96532;-81
2021/12/09 05:58:18;;;;;;;36.67;16.20;;;1.70;99.90;;;-0.45;95.74;99217.59;10553680;27;96505;-81
2021/12/09 06:03:23;;;;;;;35.10;15.57;;;1.70;99.90;;;-0.43;95.99;99212.22;10558350;27;98214;-81
2021/12/09 06:08:27;;;;;;;34.77;15.93;;;1.70;99.90;;;-0.45;95.89;99165.38;10535493;27;96765;-81
2021/12/09 06:13:32;;;;;;;35.00;15.40;;;1.70;99.90;;;-0.44;96.04;99167.03;10545862;27;96672;-81
2021/12/09 06:18:35;;;;;;;42.13;15.87;;;1.80;99.90;;;-0.43;95.78;99191.34;10551308;27;98346;-84
2021/12/09 06:23:39;;;;;;;46.97;17.63;;;1.70;99.90;;;-0.45;95.97;99178.44;10512000;27;96745;-81
2021/12/09 06:28:42;;;;;;;34.33;14.90;;;1.80;99.90;;;-0.45;96.10;99162.78;10544484;27;96509;-81
2021/12/09 06:33:47;;;;;;;39.83;17.50;;;1.70;99.90;;;-0.45;95.49;99170.59;10530124;27;96501;-82
2021/12/09 06:38:50;;;;;;;34.67;14.17;;;1.70;99.90;;;-0.44;95.34;99179.25;10537787;27;97237;-81
2021/12/09 06:43:53;;;;;;;41.90;19.30;;;1.70;99.90;;;-0.44;95.66;99185.31;10589171;27;96579;-81
2021/12/09 06:48:57;;;;;;;34.03;13.50;;;1.70;99.90;;;-0.42;95.24;99175.59;10553968;27;96538;-81
2021/12/09 06:54:00;;;;;;;38.20;15.20;;;1.70;99.90;;;-0.42;95.09;99175.59;10546827;27;96542;-81
2021/12/09 06:59:03;;;;;;;36.53;14.53;;;1.70;99.90;;;-0.39;95.18;99177.94;10551380;27;96563;-81
2021/12/09 07:04:11;;;;;;;33.17;14.93;;;1.70;99.90;;;-0.38;94.77;99176.97;10572110;27;96435;-81
2021/12/09 07:09:14;;;;;;;37.17;16.23;;;1.80;99.90;;;-0.36;94.44;99171.63;10544775;27;96575;-81
2021/12/09 07:14:18;;;;;;;36.37;14.90;;;1.80;99.90;;;-0.33;94.55;99181.84;10528383;27;96488;-81
2021/12/09 07:19:21;;;;;;;29.30;12.97;;;1.80;99.90;;;-0.31;94.23;99180.75;10528231;27;96437;-81
2021/12/09 07:24:24;;;;;;;37.03;14.60;;;1.80;99.90;;;-0.27;94.21;99184.78;10550386;27;96366;-81
2021/12/09 07:29:28;;;;;;;33.00;14.20;;;1.80;99.90;;;-0.23;93.90;99181.94;10518303;27;96488;-81
2021/12/09 07:34:31;;;;;;;33.37;15.37;;;1.90;99.90;;;-0.19;93.88;99188.56;10536816;27;96482;-81
2021/12/09 07:39:35;;;;;;;29.73;12.87;;;1.90;99.90;;;-0.17;94.02;99181.44;10553606;27;96523;-81
2021/12/09 07:44:38;;;;;;;26.80;12.30;;;2.00;99.90;;;-0.13;93.70;99177.59;10573326;27;96635;-81
2021/12/09 07:49:41;;;;;;;27.13;12.03;;;2.00;99.90;;;-0.10;93.55;99166.94;10577262;27;96411;-81
2021/12/09 07:54:44;;;;;;;31.03;13.40;;;2.10;99.90;;;-0.06;93.14;99157.88;10559232;27;96486;-81
2021/12/09 07:59:47;;;;;;;28.47;13.63;;;2.10;99.90;;;-0.03;92.90;99145.41;10559347;27;96480;-81
2021/12/09 08:04:50;;;;;;;30.20;13.20;;;2.10;99.90;;;0.01;93.13;99153.81;10541507;27;96577;-81
2021/12/09 08:09:52;;;;;;;29.17;13.33;;;2.10;99.90;;;0.06;92.75;99143.81;10575812;27;96431;-81
2021/12/09 08:14:57;;;;;;;32.17;12.70;;;2.20;99.90;;;0.11;92.74;99127.75;10557952;27;96962;-81
2021/12/09 08:20:00;;;;;;;30.53;14.37;;;2.20;99.90;;;0.15;92.25;99116.91;10526638;27;96650;-81
2021/12/09 08:25:09;;;;;;;26.10;12.27;;;2.30;99.90;;;0.20;92.41;99122.59;10533047;27;96505;-81
2021/12/09 08:30:17;;;;;;;25.57;12.37;;;2.30;99.90;;;0.25;92.03;99128.28;10533559;27;96505;-81
2021/12/09 08:35:40;;;;;;;29.67;12.90;;;2.40;99.90;;;0.30;91.56;99132.25;10539286;27;97125;-81
2021/12/09 08:40:45;;;;;;;46.63;18.40;;;2.40;99.90;;;0.33;91.05;99129.41;10568535;27;96648;-81
2021/12/09 08:45:51;;;;;;;30.27;14.57;;;2.40;99.90;;;0.33;91.32;99118.94;10547873;27;96576;-80
2021/12/09 08:50:54;;;;;;;32.83;13.40;;;2.50;99.90;;;0.34;91.16;99118.81;10550606;27;96311;-80
2021/12/09 08:55:57;;;;;;;26.30;12.37;;;2.50;99.90;;;0.37;90.60;99125.59;10532632;27;96743;-81
2021/12/09 09:01:01;;;;;;;34.20;15.77;;;2.50;99.90;;;0.42;90.46;99128.63;10531844;27;96442;-80
2021/12/09 09:06:04;;;;;;;26.90;12.80;;;2.50;99.90;;;0.44;89.84;99106.63;10558800;27;96615;-80
2021/12/09 09:11:08;;;;;;;33.33;13.50;;;2.60;99.90;;;0.45;90.09;99105.66;10548165;27;96486;-80
2021/12/09 09:16:11;;;;;;;30.33;14.33;;;2.50;99.90;;;0.49;89.71;99101.03;10559905;27;96456;-80
2021/12/09 09:21:14;;;;;;;25.90;12.87;;;2.60;99.90;;;0.56;89.53;99111.78;10568828;27;96484;-80
2021/12/09 09:26:17;;;;;;;28.17;13.23;;;2.60;99.90;;;0.66;89.69;99110.88;10552390;27;98085;-81
2021/12/09 09:31:21;;;;;;;29.77;13.63;;;2.70;99.90;;;0.71;89.40;99111.28;10540380;27;96492;-80
2021/12/09 09:36:24;;;;;;;31.40;13.77;;;2.80;99.90;;;0.69;88.86;99123.66;10531047;27;96478;-80
2021/12/09 09:41:32;;;;;;;30.00;13.90;;;2.80;99.90;;;0.65;88.57;99119.66;10530812;27;96427;-80
2021/12/09 09:46:36;;;;;;;33.70;16.67;;;2.70;99.90;;;0.64;88.85;99112.78;10529622;27;96461;-80
2021/12/09 09:51:40;;;;;;;29.13;13.83;;;2.80;99.90;;;0.64;89.28;99091.03;10539873;27;96665;-80
2021/12/09 09:56:43;;;;;;;25.90;12.87;;;2.70;99.90;;;0.60;89.53;99056.50;10547614;27;96512;-80
2021/12/09 10:01:52;;;;;;;33.10;14.27;;;2.70;99.90;;;0.51;90.20;99052.88;10564975;27;96526;-80
2021/12/09 10:06:55;;;;;;;31.70;13.97;;;2.70;99.90;;;0.46;90.27;99047.22;10557318;27;97109;-80
2021/12/09 10:12:00;;;;;;;26.53;12.17;;;2.60;99.90;;;0.44;91.10;99037.84;10579047;27;96610;-80
2021/12/09 10:17:17;;;;;;;27.10;12.70;;;2.60;99.90;;;0.44;91.73;99028.22;10558836;27;96627;-80
2021/12/09 10:22:40;;;;;;;29.83;14.40;;;2.50;99.90;;;0.41;92.05;99025.03;10589800;27;96465;-80
2021/12/09 10:27:45;;;;;;;25.83;12.23;;;2.50;99.90;;;0.39;92.49;99021.75;10543575;27;96507;-80
2021/12/09 10:32:50;;;;;;;26.77;13.10;;;2.50;99.90;;;0.42;92.62;99011.00;10530803;27;96469;-80
2021/12/09 10:37:53;;;;;;;29.83;13.37;;;2.50;99.90;;;0.51;92.90;99008.44;10529305;27;96490;-80
2021/12/09 10:43:04;;;;;;;28.60;12.57;;;2.60;99.90;;;0.62;93.42;99004.91;10529598;27;97344;-80
2021/12/09 10:58:34;;;;;;;30.10;14.47;;;2.70;99.90;;;0.68;93.36;99001.75;10508204;27;96423;-80
2021/12/09 11:03:49;;;;;;;26.70;12.90;;;2.70;99.90;;;0.70;93.20;98999.81;10475891;27;96548;-80
2021/12/09 11:08:55;;;;;;;26.10;12.70;;;2.80;99.90;;;0.73;93.25;98998.72;10488231;27;96421;-80
2021/12/09 11:14:12;;;;;;;29.37;15.03;;;2.80;99.90;;;0.74;93.06;98984.69;10498466;27;96582;-80
2021/12/09 11:24:41;;;;;;;26.47;13.17;;;2.80;99.90;;;0.75;93.37;98981.94;10489837;27;96584;-80
2021/12/09 11:29:55;;;;;;;31.83;14.60;;;2.80;99.90;;;0.73;93.18;98969.97;10486508;27;96664;-80
2021/12/09 11:35:19;;;;;;;32.33;16.00;;;2.80;99.90;;;0.73;93.05;98969.97;10509341;27;96452;-80
2021/12/09 11:40:34;;;;;;;34.07;15.40;;;2.80;99.90;;;0.73;93.44;98960.34;10492428;27;96474;-79
2021/12/09 11:45:42;;;;;;;31.57;13.83;;;2.80;99.90;;;0.77;93.67;98961.69;10491833;27;97983;-79
2021/12/09 11:50:52;;;;;;;27.00;13.93;;;2.80;99.90;;;0.76;93.49;98952.19;10517520;27;96385;-79
2021/12/09 11:56:05;;;;;;;25.00;13.90;;;2.80;99.90;;;0.70;94.01;98947.50;10517368;27;96487;-80
2021/12/09 12:39:17;;;;;;;35.20;16.03;;;2.50;99.90;;;0.39;95.78;98888.47;10553150;27;96441;-80
2021/12/09 12:44:20;;;;;;;33.57;16.60;;;2.50;99.90;;;0.38;96.14;98887.63;10564148;27;97014;-80
2021/12/09 12:49:35;;;;;;;35.67;16.07;;;2.50;99.90;;;0.36;96.50;98883.47;10541254;27;96464;-79
2021/12/09 12:54:53;;;;;;;38.87;17.10;;;2.50;99.90;;;0.31;96.50;98880.47;10526706;27;96535;-80
2021/12/09 13:00:19;;;;;;;33.73;16.07;;;2.40;99.90;;;0.26;96.94;98889.53;10515885;27;96637;-80
2021/12/09 13:21:52;;;;;;;39.47;17.43;;;2.30;99.90;;;0.15;97.17;98926.22;10550000;27;96724;-80
2021/12/09 13:27:12;;;;;;;36.80;16.50;;;2.30;99.90;;;0.08;97.49;98926.88;10548443;27;96406;-80
2021/12/09 13:32:47;;;;;;;37.80;14.80;;;2.20;99.90;;;-0.01;97.44;98925.88;10538112;27;96491;-80
2021/12/09 13:48:42;;;;;;;50.20;20.83;;;2.00;99.90;;;-0.25;97.96;98902.69;10520230;27;96858;-81
2021/12/09 13:54:18;;;;;;;43.07;20.30;;;1.90;99.90;;;-0.32;98.08;98897.16;10510471;27;96647;-81
2021/12/09 13:59:27;;;;;;;40.10;18.80;;;1.90;99.90;;;-0.35;98.14;98907.06;10507298;27;96673;-81
2021/12/09 14:04:36;;;;;;;76.27;34.07;;;1.80;99.90;;;-0.40;98.33;98906.63;10545261;27;96513;-81
2021/12/09 14:09:42;;;;;;;71.13;30.30;;;1.80;99.90;;;-0.45;98.37;98907.00;10546258;27;96481;-81
2021/12/09 14:15:01;;;;;;;66.50;27.73;;;1.70;99.90;;;-0.49;98.33;98905.59;10528089;27;96467;-82
2021/12/09 14:20:06;;;;;;;59.70;25.30;;;1.70;99.90;;;-0.55;98.30;98895.69;10504317;27;96444;-83
2021/12/09 14:25:27;;;;;;;44.63;19.50;;;1.60;99.90;;;-0.59;99.03;98881.25;10520334;27;96567;-83
2021/12/09 14:30:30;;;;;;;42.63;18.23;;;1.50;99.90;;;-0.63;98.94;98872.03;10515844;27;96578;-84
2021/12/09 14:35:45;;;;;;;47.83;18.47;;;1.50;99.90;;;-0.65;98.98;98871.34;10527437;27;96752;-84
2021/12/09 14:40:56;;;;;;;38.93;16.93;;;1.50;99.90;;;-0.68;99.28;98866.34;10532355;27;96513;-84
2021/12/09 14:46:09;;;;;;;54.95;23.30;;;1.40;99.90;;;-0.69;99.37;98882.97;10533767;27;96608;-84
2021/12/09 14:51:14;;;;;;;46.33;21.07;;;1.40;99.90;;;-0.71;99.30;98893.53;10524502;27;98254;-84
2021/12/09 14:56:30;;;;;;;54.53;25.77;;;1.40;99.90;;;-0.73;99.59;98887.59;10590446;27;96676;-84
2021/12/09 15:01:34;;;;;;;42.00;19.67;;;1.40;99.90;;;-0.75;99.97;98881.69;10537047;27;96666;-84
2021/12/09 15:06:40;;;;;;;42.70;19.57;;;1.40;99.90;;;-0.77;99.69;98881.00;10544035;27;96914;-84
2021/12/09 15:11:50;;;;;;;60.20;26.90;;;1.40;99.90;;;-0.75;99.82;98883.50;10532810;27;96703;-84
2021/12/09 15:17:23;;;;;;;64.50;24.63;;;1.30;99.90;;;-0.76;99.87;98876.63;10535527;27;96417;-84
2021/12/09 15:22:40;;;;;;;89.65;38.33;;;1.40;99.90;;;-0.77;99.97;98881.00;10534477;27;97439;-85
2021/12/09 15:28:17;;;;;;;47.53;22.23;;;1.30;99.90;;;-0.78;100.00;98892.41;10542122;27;96416;-84
2021/12/09 15:33:43;;;;;;;53.73;21.13;;;1.30;99.90;;;-0.78;100.00;98883.72;10576055;27;96630;-85
2021/12/09 15:39:08;;;;;;;39.57;19.10;;;1.30;99.90;;;-0.77;100.00;98881.00;10559302;27;96731;-85
2021/12/09 15:44:22;;;;;;;47.77;19.73;;;1.30;99.90;;;-0.78;100.00;98884.59;10534045;27;97194;-85
2021/12/09 15:49:29;;;;;;;50.03;21.60;;;1.30;99.90;;;-0.77;100.00;98878.41;10549854;27;96820;-84
2021/12/09 15:54:43;;;;;;;38.00;16.90;;;1.30;99.90;;;-0.76;100.00;98876.63;10559448;27;96661;-84
2021/12/09 15:59:48;;;;;;;45.37;21.50;;;1.40;99.90;;;-0.76;100.00;98864.41;10545885;27;96449;-84
2021/12/09 16:04:51;;;;;;;42.53;18.93;;;1.40;99.90;;;-0.76;100.00;98859.19;10525251;27;96609;-84
2021/12/09 16:09:54;;;;;;;55.80;23.23;;;1.40;99.90;;;-0.73;100.00;98855.47;10529392;27;96519;-83
2021/12/09 16:14:59;;;;;;;45.07;20.60;;;1.40;99.90;;;-0.71;100.00;98866.63;10574173;27;96511;-83
2021/12/09 16:20:20;;;;;;;52.43;22.07;;;1.40;99.90;;;-0.72;100.00;98859.75;10537292;27;96740;-83
2021/12/09 16:25:23;;;;;;;38.83;16.20;;;1.40;99.90;;;-0.72;100.00;98857.97;10575663;27;96570;-83
2021/12/09 16:30:30;;;;;;;49.93;23.77;;;1.40;99.90;;;-0.72;100.00;98846.69;10563493;27;96701;-83
2021/12/09 16:35:36;;;;;;;65.73;30.40;;;1.40;99.90;;;-0.70;100.00;98847.41;10539843;27;96838;-82
2021/12/09 16:40:44;;;;;;;54.00;22.63;;;1.40;99.90;;;-0.69;100.00;98859.50;10549180;27;96682;-83
2021/12/09 16:45:50;;;;;;;50.83;22.10;;;1.40;99.90;;;-0.67;100.00;98852.34;10558519;27;96887;-82
2021/12/09 16:50:55;;;;;;;77.27;31.03;;;1.40;99.90;;;-0.68;100.00;98853.31;10515358;27;96732;-83
2021/12/09 16:56:10;;;;;;;53.30;24.03;;;1.40;99.90;;;-0.64;100.00;98865.16;10534551;27;96548;-85
2021/12/09 17:01:18;;;;;;;63.47;26.30;;;1.40;99.90;;;-0.63;100.00;98866.81;10541464;27;96800;-83
2021/12/09 17:06:22;;;;;;;50.47;22.33;;;1.50;99.90;;;-0.63;100.00;98875.44;10562138;27;96571;-82
2021/12/09 17:11:32;;;;;;;107.30;41.30;;;1.50;99.90;;;-0.62;100.00;98878.88;10556915;27;96440;-82
2021/12/09 17:16:35;;;;;;;51.03;22.20;;;1.50;99.90;;;-0.63;100.00;98862.41;10534343;27;96615;-82
2021/12/09 17:21:40;;;;;;;63.73;24.23;;;1.50;99.90;;;-0.62;100.00;98866.66;10563199;27;96506;-82
2021/12/09 17:26:47;;;;;;;132.10;50.93;;;1.50;99.90;;;-0.61;100.00;98872.72;10514758;27;96579;-82
2021/12/09 17:31:50;;;;;;;100.23;42.97;;;1.50;99.90;;;-0.60;100.00;98871.75;10537864;27;96980;-82
2021/12/09 17:37:02;;;;;;;49.00;23.33;;;1.50;99.90;;;-0.59;100.00;98883.88;10550871;27;96675;-82
2021/12/09 17:42:05;;;;;;;72.13;29.50;;;1.50;99.90;;;-0.59;100.00;98889.09;10524087;27;97016;-82
2021/12/09 17:47:10;;;;;;;63.40;26.83;;;1.50;99.90;;;-0.58;100.00;98895.94;10537703;27;96899;-82
2021/12/09 17:57:20;;;;;;;72.87;33.47;;;1.60;99.90;;;-0.57;100.00;98898.41;10557448;27;96577;-81
2021/12/09 18:02:23;;;;;;;77.30;32.83;;;1.60;99.90;;;-0.56;100.00;98904.47;10556872;27;97945;-82
2021/12/09 18:07:26;;;;;;;65.10;26.43;;;1.60;99.90;;;-0.54;100.00;98897.31;10520360;27;96735;-81
2021/12/09 18:12:30;;;;;;;88.37;32.90;;;1.60;99.90;;;-0.54;100.00;98886.88;10531313;27;96453;-81
2021/12/09 18:17:35;;;;;;;114.20;45.93;;;1.60;99.90;;;-0.51;100.00;98891.03;10512573;27;96836;-81
2021/12/09 18:22:38;;;;;;;89.77;41.60;;;1.60;99.90;;;-0.53;100.00;98896.41;10528485;27;96492;-81
2021/12/09 18:27:43;;;;;;;93.80;42.33;;;1.60;99.90;;;-0.54;100.00;98894.72;10570303;27;96713;-81
2021/12/09 18:32:46;;;;;;;58.97;22.57;;;1.60;99.90;;;-0.54;100.00;98892.09;10544991;27;96506;-81
2021/12/09 18:37:52;;;;;;;60.03;20.60;;;1.60;99.90;;;-0.54;100.00;98892.09;10528942;27;96510;-81
2021/12/09 18:42:55;;;;;;;49.13;17.43;;;1.60;99.90;;;-0.52;100.00;98894.59;10537421;27;96701;-81
2021/12/09 18:47:58;;;;;;;49.10;19.97;;;1.60;99.90;;;-0.51;100.00;98901.47;10517674;27;99076;-81
2021/12/09 18:53:02;;;;;;;122.03;52.30;;;1.60;99.90;;;-0.50;100.00;98887.47;10512251;27;96662;-81
2021/12/09 18:58:11;;;;;;;58.80;23.20;;;1.60;99.90;;;-0.52;100.00;98871.94;10553178;27;97013;-80
2021/12/09 19:03:15;;;;;;;47.03;20.20;;;1.60;99.90;;;-0.51;100.00;98860.53;10543452;27;96941;-81
2021/12/09 19:08:20;;;;;;;46.17;18.07;;;1.70;99.90;;;-0.51;100.00;98857.94;10545064;27;96532;-81
2021/12/09 19:13:23;;;;;;;91.60;34.67;;;1.70;99.90;;;-0.49;100.00;98876.06;10527391;27;96730;-81
2021/12/09 19:18:28;;;;;;;105.37;47.43;;;1.70;99.90;;;-0.47;100.00;98874.16;10550443;27;96766;-81
2021/12/09 19:23:32;;;;;;;124.37;60.43;;;1.70;99.90;;;-0.47;100.00;98880.22;10542297;27;96926;-81
2021/12/09 19:28:40;;;;;;;71.27;32.60;;;1.70;99.90;;;-0.48;100.00;98882.94;10551345;27;96906;-81
2021/12/09 19:33:44;;;;;;;60.73;25.17;;;1.70;99.90;;;-0.51;100.00;98904.09;10565977;27;96501;-81
2021/12/09 19:38:49;;;;;;;49.70;20.43;;;1.70;99.90;;;-0.53;100.00;98896.41;10529225;27;96648;-80
2021/12/09 19:43:55;;;;;;;48.97;17.47;;;1.60;99.90;;;-0.54;100.00;98871.22;10552226;27;96546;-81
2021/12/09 19:49:01;;;;;;;41.93;15.70;;;1.60;99.90;;;-0.56;100.00;98873.16;10543198;27;96642;-81
2021/12/09 19:54:04;;;;;;;43.57;15.87;;;1.60;99.90;;;-0.57;100.00;98872.31;10534307;27;96481;-81
2021/12/09 19:59:07;;;;;;;40.83;15.83;;;1.60;99.90;;;-0.58;100.00;98870.69;10537106;27;96607;-81
2021/12/09 20:04:10;;;;;;;46.77;16.63;;;1.60;99.90;;;-0.59;100.00;98874.25;10554594;27;96553;-81
2021/12/09 20:09:28;;;;;;;48.97;19.53;;;1.60;99.90;;;-0.60;100.00;98879.56;10554445;27;96542;-80
2021/12/09 20:14:31;;;;;;;46.63;19.07;;;1.60;99.90;;;-0.58;100.00;98888.94;10572486;27;97072;-81
2021/12/09 20:19:34;;;;;;;67.83;23.73;;;1.60;99.90;;;-0.57;100.00;98898.41;10575283;27;96735;-81
2021/12/09 20:24:54;;;;;;;64.40;22.80;;;1.60;99.90;;;-0.55;100.00;98893.06;10567730;27;96675;-81
2021/12/09 20:29:57;;;;;;;45.30;17.47;;;1.60;99.90;;;-0.53;100.00;98888.56;10565278;27;98091;-81
2021/12/09 20:35:00;;;;;;;58.87;23.33;;;1.60;99.90;;;-0.52;100.00;98898.03;10540986;27;96585;-81
2021/12/09 20:40:06;;;;;;;57.50;23.47;;;1.60;99.90;;;-0.51;100.00;98911.91;10567975;27;96562;-81
2021/12/09 20:45:10;;;;;;;45.80;15.83;;;1.60;99.90;;;-0.53;100.00;98916.44;10558381;27;96882;-81
2021/12/09 20:50:31;;;;;;;45.07;18.70;;;1.60;99.90;;;-0.52;100.00;98905.88;10556105;27;98293;-81
2021/12/09 20:55:36;;;;;;;48.37;19.47;;;1.60;99.90;;;-0.53;100.00;98893.78;10536883;27;96666;-81
2021/12/09 21:00:41;;;;;;;54.13;19.97;;;1.60;99.90;;;-0.51;100.00;98906.69;10532326;27;96761;-81
2021/12/09 21:05:52;;;;;;;45.87;19.10;;;1.60;99.90;;;-0.51;100.00;98896.25;10548166;27;96733;-81
2021/12/09 21:10:59;;;;;;;39.70;17.67;;;1.60;99.90;;;-0.49;100.00;98902.97;10547152;27;96629;-81
2021/12/09 21:16:08;;;;;;;40.50;16.80;;;1.70;99.90;;;-0.45;100.00;98900.97;10548212;27;97130;-81
2021/12/09 21:21:12;;;;;;;42.30;16.50;;;1.70;99.90;;;-0.44;100.00;98913.88;10548820;27;97187;-81
2021/12/09 21:26:15;;;;;;;46.17;16.77;;;1.70;99.90;;;-0.42;100.00;98922.41;10554315;27;96497;-80
2021/12/09 21:31:19;;;;;;;42.00;17.53;;;1.80;99.90;;;-0.39;100.00;98932.59;10532159;27;96481;-81
2021/12/09 21:36:30;;;;;;;34.33;16.27;;;1.70;99.90;;;-0.39;100.00;98922.16;10549101;27;96869;-80
2021/12/09 21:41:34;;;;;;;22.10;9.47;;;1.70;99.90;;;-0.36;100.00;98948.00;10543240;27;97094;-81
2021/12/09 21:46:38;;;;;;;30.00;13.13;;;1.80;99.90;;;-0.34;100.00;98938.25;10513233;27;96818;-80
2021/12/09 21:51:43;;;;;;;30.27;13.07;;;1.80;99.90;;;-0.33;100.00;98931.25;10532409;27;97165;-80
2021/12/09 21:56:46;;;;;;;52.30;21.17;;;1.80;99.90;;;-0.34;100.00;98925.19;10534116;27;96774;-80
2021/12/09 22:01:51;;;;;;;44.47;18.27;;;1.80;99.90;;;-0.33;100.00;98921.63;10527471;27;97874;-80
2021/12/09 22:07:00;;;;;;;44.10;18.37;;;1.80;99.90;;;-0.34;100.00;98922.59;10545607;27;96631;-80
2021/12/09 22:12:04;;;;;;;41.13;17.97;;;1.80;99.90;;;-0.34;100.00;98933.03;10529902;27;96681;-80
2021/12/09 22:17:17;;;;;;;35.97;16.53;;;1.80;99.90;;;-0.35;100.00;98944.44;10543294;27;98115;-80
2021/12/09 22:22:20;;;;;;;34.47;15.37;;;1.80;99.90;;;-0.35;100.00;98926.16;10568685;27;96963;-80
2021/12/09 22:27:23;;;;;;;25.63;11.97;;;1.80;99.90;;;-0.36;100.00;98952.38;10555096;27;96525;-80